Time;durP1;ratioP1;P1;durP2;ratioP2;P2;SDS_P1;SDS_P2;PMS_P1;PMS_P2;Temp;Humidity;BMP_temperature;BMP_pressure;BME280_temperature;BME280_humidity;BME280_pressure;Samples;Min_cycle;Max_cycle;Signal;HPM_P1;HPM_P2
2023/09/30 00:02:01;;;;;;;8.23;4.20;;;22.70;59.50;22.00;97221.00;;;;4985195;28;20759;-85
2023/09/30 00:04:29;;;;;;;9.20;4.47;;;22.70;59.60;21.90;97225.00;;;;4988660;28;20218;-84
2023/09/30 00:06:56;;;;;;;7.67;4.30;;;22.60;59.60;21.90;97225.00;;;;4990528;28;20606;-85
2023/09/30 00:09:24;;;;;;;8.63;4.63;;;22.60;59.60;21.80;97228.00;;;;4987229;28;20207;-84
2023/09/30 00:11:55;;;;;;;8.70;4.20;;;22.50;59.70;21.70;97237.00;;;;4985980;28;20249;-84
2023/09/30 00:14:22;;;;;;;8.53;5.03;;;22.50;59.80;21.60;97240.00;;;;4985023;28;20301;-84
2023/09/30 00:16:50;;;;;;;11.63;5.27;;;22.40;59.90;21.50;97236.00;;;;4982885;28;20210;-84
2023/09/30 00:19:17;;;;;;;8.43;4.33;;;22.30;60.00;21.50;97235.00;;;;4984256;28;20264;-84
2023/09/30 00:21:45;;;;;;;8.87;4.47;;;22.30;60.20;21.40;97231.00;;;;4966141;28;20219;-85
2023/09/30 00:24:12;;;;;;;9.17;4.80;;;22.20;60.20;21.30;97243.00;;;;4987850;28;20290;-85
2023/09/30 00:26:39;;;;;;;9.53;4.97;;;22.20;60.40;21.20;97238.00;;;;4988043;28;20211;-84
2023/09/30 00:29:08;;;;;;;10.10;5.67;;;22.10;60.50;21.20;97230.00;;;;4988968;28;20207;-85
2023/09/30 00:31:35;;;;;;;8.77;4.37;;;22.00;60.70;21.10;97218.00;;;;4988404;28;20223;-85
2023/09/30 00:34:02;;;;;;;8.30;4.60;;;22.00;60.80;21.00;97230.00;;;;4991355;28;20222;-84
2023/09/30 00:36:29;;;;;;;8.93;4.30;;;21.90;61.70;20.90;97232.00;;;;4990673;28;20735;-84
2023/09/30 00:38:57;;;;;;;8.77;4.60;;;21.80;61.00;20.90;97232.00;;;;4993499;28;20199;-85
2023/09/30 00:41:24;;;;;;;9.93;5.20;;;21.80;61.10;20.80;97232.00;;;;4988669;28;20761;-84
2023/09/30 00:43:53;;;;;;;9.30;4.90;;;21.70;61.30;20.70;97220.00;;;;4991317;28;20196;-85
2023/09/30 00:46:30;;;;;;;8.77;4.50;;;21.60;61.40;20.70;97231.00;;;;4987244;28;20286;-84
2023/09/30 00:49:00;;;;;;;8.10;4.53;;;21.60;61.70;20.60;97230.00;;;;4988343;28;20265;-84
2023/09/30 00:51:28;;;;;;;8.07;4.13;;;21.50;61.60;20.50;97232.00;;;;4992098;28;20306;-85
2023/09/30 00:53:59;;;;;;;9.37;5.00;;;21.40;61.80;20.50;97239.00;;;;5000528;28;20757;-85
2023/09/30 00:56:29;;;;;;;8.53;4.73;;;21.40;62.00;20.40;97229.00;;;;4989764;28;20199;-85
2023/09/30 00:58:57;;;;;;;9.47;4.90;;;21.30;62.20;20.30;97230.00;;;;4982124;28;20199;-84
2023/09/30 01:01:26;;;;;;;8.67;4.27;;;21.20;62.20;20.30;97230.00;;;;4990480;28;20229;-84
2023/09/30 01:03:53;;;;;;;9.17;4.57;;;21.20;62.40;20.20;97241.00;;;;4990640;28;20229;-84
2023/09/30 01:06:21;;;;;;;9.37;4.60;;;21.10;62.40;20.10;97238.00;;;;4992203;28;20210;-85
2023/09/30 01:08:48;;;;;;;10.87;4.70;;;21.10;62.70;20.10;97240.00;;;;4993814;28;20205;-85
2023/09/30 01:11:16;;;;;;;6.57;3.87;;;21.00;62.80;20.10;97253.00;;;;4998897;28;20219;-85
2023/09/30 01:13:44;;;;;;;9.70;4.77;;;20.90;62.90;20.00;97245.00;;;;5000998;28;20205;-84
2023/09/30 01:16:12;;;;;;;9.53;5.57;;;20.90;63.20;20.00;97241.00;;;;4988137;28;20227;-84
2023/09/30 01:18:42;;;;;;;9.13;4.53;;;20.80;63.30;19.90;97252.00;;;;4993114;28;20206;-85
2023/09/30 01:21:10;;;;;;;10.07;5.47;;;20.80;63.50;19.90;97246.00;;;;4987554;28;20225;-85
2023/09/30 01:23:39;;;;;;;11.10;5.33;;;20.80;63.60;19.80;97252.00;;;;4987650;28;20214;-85
2023/09/30 01:26:09;;;;;;;8.50;4.53;;;20.70;63.80;19.80;97254.00;;;;4987292;28;20222;-85
2023/09/30 01:28:37;;;;;;;9.00;4.67;;;20.70;63.90;19.80;97247.00;;;;4988042;28;20206;-84
2023/09/30 01:31:04;;;;;;;9.00;4.47;;;20.60;64.10;19.80;97245.00;;;;4990894;28;20282;-84
2023/09/30 01:33:32;;;;;;;8.97;4.53;;;20.60;64.30;19.80;97248.00;;;;4988232;28;20198;-84
2023/09/30 01:35:59;;;;;;;11.00;5.33;;;20.60;64.60;19.80;97245.00;;;;4991454;28;20232;-84
2023/09/30 01:38:27;;;;;;;10.20;4.87;;;20.60;64.90;19.80;97245.00;;;;4990293;28;20214;-85
2023/09/30 01:40:55;;;;;;;9.13;4.73;;;20.60;65.10;19.80;97256.00;;;;4998098;28;20220;-85
2023/09/30 01:43:22;;;;;;;11.70;4.93;;;20.50;65.30;19.80;97245.00;;;;4988357;28;20188;-84
2023/09/30 01:45:50;;;;;;;8.10;4.70;;;20.50;65.40;19.80;97255.00;;;;4991092;28;20214;-84
2023/09/30 01:48:17;;;;;;;9.30;4.60;;;20.50;65.60;19.80;97247.00;;;;4993377;28;20206;-84
2023/09/30 01:50:44;;;;;;;11.23;4.77;;;20.50;65.70;19.80;97245.00;;;;4983477;28;20213;-84
2023/09/30 01:53:11;;;;;;;8.67;4.37;;;20.50;65.80;19.90;97244.00;;;;4992666;28;20213;-84
2023/09/30 01:55:38;;;;;;;9.03;3.97;;;20.50;65.90;19.90;97247.00;;;;4982614;28;20310;-84
2023/09/30 01:58:07;;;;;;;9.97;4.23;;;20.60;66.00;19.90;97243.00;;;;4988506;28;20205;-83
2023/09/30 02:00:35;;;;;;;8.73;4.60;;;20.60;66.20;19.90;97243.00;;;;4989075;28;20206;-83
2023/09/30 02:03:02;;;;;;;11.43;4.97;;;20.60;66.30;19.90;97245.00;;;;4986207;28;20295;-83
2023/09/30 02:05:29;;;;;;;7.77;4.10;;;20.60;66.20;20.00;97245.00;;;;4987747;28;20597;-83
2023/09/30 02:07:57;;;;;;;7.10;4.13;;;20.60;66.20;20.00;97234.00;;;;4995951;28;20297;-83
2023/09/30 02:10:24;;;;;;;8.60;4.50;;;20.70;66.30;20.00;97238.00;;;;4987968;28;20658;-83
2023/09/30 02:12:51;;;;;;;7.70;4.23;;;20.70;66.30;20.00;97245.00;;;;4988408;28;20318;-83
2023/09/30 02:15:20;;;;;;;10.83;4.73;;;20.70;66.40;20.10;97246.00;;;;4991733;28;20229;-83
2023/09/30 02:17:48;;;;;;;7.70;4.33;;;20.70;67.10;20.10;97252.00;;;;4991502;28;20237;-83
2023/09/30 02:20:19;;;;;;;10.80;5.23;;;20.80;66.40;20.10;97253.00;;;;4986945;28;20223;-83
2023/09/30 02:22:47;;;;;;;8.37;4.10;;;20.80;66.40;20.10;97252.00;;;;4995292;28;20306;-82
2023/09/30 02:25:14;;;;;;;8.53;4.47;;;20.80;66.30;20.20;97249.00;;;;4992218;28;20621;-83
2023/09/30 02:27:42;;;;;;;11.27;4.93;;;20.80;66.20;20.20;97245.00;;;;5004777;28;20286;-83
2023/09/30 02:30:14;;;;;;;12.83;5.27;;;20.80;66.30;20.20;97255.00;;;;4986606;28;20229;-83
2023/09/30 02:32:45;;;;;;;10.47;5.27;;;20.80;66.30;20.20;97249.00;;;;4996758;28;20227;-83
2023/09/30 02:35:14;;;;;;;8.70;4.57;;;20.90;66.40;20.20;97254.00;;;;4987999;28;20273;-83
2023/09/30 02:37:42;;;;;;;11.20;5.40;;;20.90;66.30;20.30;97260.00;;;;4989330;28;20572;-83
2023/09/30 02:40:10;;;;;;;10.43;4.70;;;20.90;67.00;20.30;97254.00;;;;4984488;28;20201;-83
2023/09/30 02:42:38;;;;;;;9.00;5.00;;;20.90;66.30;20.30;97256.00;;;;4990566;28;20309;-83
2023/09/30 02:45:07;;;;;;;8.93;5.17;;;20.90;66.30;20.30;97252.00;;;;4981668;28;20207;-84
2023/09/30 02:47:35;;;;;;;9.50;4.90;;;21.00;66.30;20.30;97252.00;;;;4994916;28;20258;-83
2023/09/30 02:50:08;;;;;;;10.33;5.07;;;21.00;66.40;20.30;97249.00;;;;4983710;28;20651;-83
2023/09/30 02:52:36;;;;;;;9.80;5.10;;;21.00;66.30;20.30;97253.00;;;;4988240;28;20781;-83
2023/09/30 02:55:04;;;;;;;8.63;5.10;;;21.00;66.20;20.30;97247.00;;;;4978763;28;20227;-83
2023/09/30 02:57:31;;;;;;;12.03;5.63;;;21.00;66.20;20.30;97237.00;;;;4982205;28;20290;-83
2023/09/30 03:00:00;;;;;;;7.63;4.30;;;21.00;66.20;20.40;97239.00;;;;4986429;28;20199;-83
2023/09/30 03:02:27;;;;;;;8.77;4.47;;;21.00;66.20;20.40;97242.00;;;;4985677;28;20227;-83
2023/09/30 03:04:54;;;;;;;7.43;4.70;;;21.00;66.30;20.40;97238.00;;;;4987586;28;20281;-83
2023/09/30 03:07:23;;;;;;;10.57;4.50;;;21.00;67.10;20.40;97247.00;;;;4984111;28;20195;-83
2023/09/30 03:09:50;;;;;;;8.43;4.50;;;21.00;66.30;20.40;97240.00;;;;4987004;28;20291;-83
2023/09/30 03:12:17;;;;;;;7.40;3.83;;;21.00;66.20;20.40;97240.00;;;;4982890;28;20304;-83
2023/09/30 03:14:45;;;;;;;9.47;4.77;;;21.00;66.20;20.40;97239.00;;;;4987558;28;20594;-82
2023/09/30 03:17:12;;;;;;;9.87;4.53;;;21.10;66.40;20.40;97247.00;;;;4989157;28;20605;-83
2023/09/30 03:19:39;;;;;;;8.93;4.60;;;21.00;66.30;20.40;97245.00;;;;4992842;28;20234;-83
2023/09/30 03:22:10;;;;;;;8.03;4.17;;;21.10;66.40;20.40;97245.00;;;;4993206;28;20227;-83
2023/09/30 03:24:40;;;;;;;10.60;5.30;;;21.10;66.40;20.40;97255.00;;;;4988191;28;20705;-83
2023/09/30 03:27:07;;;;;;;9.03;4.90;;;21.10;66.40;20.40;97246.00;;;;4989332;28;20202;-83
2023/09/30 03:29:40;;;;;;;7.60;4.33;;;21.10;66.40;20.30;97257.00;;;;4988224;28;20205;-83
2023/09/30 03:32:08;;;;;;;8.13;4.27;;;21.10;67.10;20.30;97254.00;;;;4993348;28;20221;-83
2023/09/30 03:34:37;;;;;;;8.17;4.90;;;21.10;66.40;20.40;97243.00;;;;4966664;28;20209;-83
2023/09/30 03:37:06;;;;;;;9.40;4.50;;;21.10;66.50;20.40;97242.00;;;;4986211;28;20195;-83
2023/09/30 03:39:33;;;;;;;8.33;4.17;;;21.00;66.30;20.40;97246.00;;;;4987699;28;20230;-83
2023/09/30 03:42:04;;;;;;;9.20;4.10;;;21.10;66.40;20.30;97244.00;;;;4987941;28;20223;-83
2023/09/30 03:44:32;;;;;;;9.43;4.63;;;21.00;66.40;20.30;97255.00;;;;4987598;28;20202;-83
2023/09/30 03:47:00;;;;;;;9.23;4.87;;;21.00;66.30;20.30;97260.00;;;;4980001;28;20199;-83
2023/09/30 03:49:30;;;;;;;8.03;4.80;;;21.10;66.40;20.30;97259.00;;;;4986288;28;20199;-83
2023/09/30 03:51:57;;;;;;;11.70;5.07;;;21.00;66.50;20.30;97265.00;;;;4997530;28;20286;-83
2023/09/30 03:54:24;;;;;;;10.17;4.60;;;21.00;66.50;20.30;97264.00;;;;5004924;28;20199;-83
2023/09/30 03:56:51;;;;;;;8.20;4.50;;;21.00;66.50;20.30;97254.00;;;;4990947;28;20285;-83
2023/09/30 03:59:20;;;;;;;7.63;4.93;;;21.00;66.50;20.30;97244.00;;;;4988555;28;20191;-83
2023/09/30 04:01:50;;;;;;;8.93;4.90;;;21.00;66.60;20.30;97260.00;;;;4991255;28;20671;-83
2023/09/30 04:04:17;;;;;;;10.57;4.80;;;21.00;66.70;20.30;97260.00;;;;5000100;28;20282;-83
2023/09/30 04:06:46;;;;;;;10.30;5.10;;;21.00;66.60;20.30;97256.00;;;;4999113;28;20237;-83
2023/09/30 04:09:16;;;;;;;9.20;4.33;;;21.00;66.60;20.30;97266.00;;;;4992494;28;20199;-83
2023/09/30 04:11:43;;;;;;;7.43;4.17;;;21.00;67.40;20.30;97270.00;;;;4994238;28;20607;-83
2023/09/30 04:14:11;;;;;;;7.33;4.27;;;21.00;66.70;20.30;97269.00;;;;4990624;28;20263;-83
2023/09/30 04:16:41;;;;;;;10.93;5.23;;;21.00;67.00;20.30;97270.00;;;;4990202;28;20246;-83
2023/09/30 04:19:10;;;;;;;10.57;4.63;;;21.00;66.90;20.30;97278.00;;;;4987245;28;20220;-84
2023/09/30 04:21:38;;;;;;;8.43;4.70;;;21.00;67.60;20.30;97267.00;;;;4995925;28;20253;-84
2023/09/30 04:24:07;;;;;;;8.80;5.00;;;21.00;66.90;20.30;97265.00;;;;4999985;22;20242;-78
2023/09/30 04:26:34;;;;;;;10.27;5.07;;;21.00;66.90;20.30;97278.00;;;;4998314;28;20618;-79
2023/09/30 04:29:10;;;;;;;9.80;5.57;;;21.00;67.00;20.30;97279.00;;;;4990744;28;20203;-79
2023/09/30 04:31:41;;;;;;;8.77;4.50;;;21.00;67.00;20.30;97271.00;;;;4984827;28;20203;-77
2023/09/30 04:34:09;;;;;;;9.43;4.90;;;21.00;67.00;20.30;97269.00;;;;4987481;28;20227;-79
2023/09/30 04:36:36;;;;;;;9.40;5.10;;;21.00;67.00;20.30;97267.00;;;;4998634;28;20722;-79
2023/09/30 04:39:05;;;;;;;11.40;5.27;;;21.00;67.10;20.30;97271.00;;;;4997142;28;20200;-79
2023/09/30 04:41:32;;;;;;;10.47;5.17;;;21.00;67.10;20.30;97274.00;;;;4992027;28;20203;-79
2023/09/30 04:44:00;;;;;;;10.80;5.27;;;21.00;67.00;20.30;97291.00;;;;4944313;28;20231;-78
2023/09/30 04:46:27;;;;;;;9.57;4.73;;;21.00;66.90;20.30;97288.00;;;;4964726;28;20213;-78
2023/09/30 04:48:56;;;;;;;8.77;4.93;;;21.00;66.90;20.20;97293.00;;;;4961957;28;20229;-79
2023/09/30 04:51:25;;;;;;;9.23;4.80;;;21.00;67.00;20.20;97296.00;;;;4975336;28;20191;-77
2023/09/30 04:53:54;;;;;;;9.33;5.13;;;21.00;67.00;20.30;97283.00;;;;4952841;28;20313;-78
2023/09/30 04:56:22;;;;;;;8.70;4.90;;;21.00;67.10;20.20;97284.00;;;;4973355;28;20235;-79
2023/09/30 04:58:49;;;;;;;10.07;5.30;;;21.00;67.00;20.20;97287.00;;;;4977429;28;20196;-79
2023/09/30 05:01:18;;;;;;;8.60;5.03;;;21.00;67.00;20.20;97288.00;;;;4974660;28;20206;-79
2023/09/30 05:03:48;;;;;;;8.00;4.37;;;20.90;67.60;20.20;97286.00;;;;4977016;28;20245;-79
2023/09/30 05:06:17;;;;;;;8.73;4.50;;;20.90;66.80;20.10;97290.00;;;;4973922;28;20278;-80
2023/09/30 05:08:45;;;;;;;8.57;5.07;;;20.90;66.80;20.10;97296.00;;;;4966281;28;20204;-79
2023/09/30 05:11:12;;;;;;;10.63;5.30;;;20.90;66.70;20.10;97292.00;;;;4952654;28;20214;-79
2023/09/30 05:13:39;;;;;;;8.07;4.93;;;20.90;66.70;20.00;97300.00;;;;4939418;28;20223;-79
2023/09/30 05:16:07;;;;;;;8.73;4.97;;;20.80;66.50;20.00;97303.00;;;;4974811;28;20223;-79
2023/09/30 05:18:34;;;;;;;11.57;5.87;;;20.80;66.50;19.90;97306.00;;;;4965192;28;20200;-79
2023/09/30 05:21:01;;;;;;;9.60;4.80;;;20.80;66.60;19.90;97300.00;;;;4965292;28;20639;-79
2023/09/30 05:23:30;;;;;;;10.00;5.07;;;20.70;67.30;19.80;97301.00;;;;4970762;28;20230;-79
2023/09/30 05:25:57;;;;;;;10.57;5.20;;;20.70;66.70;19.80;97303.00;;;;4972636;28;20205;-79
2023/09/30 05:28:25;;;;;;;9.37;4.83;;;20.70;66.70;19.80;97299.00;;;;4971332;28;20668;-79
2023/09/30 05:30:53;;;;;;;10.33;4.97;;;20.60;66.90;19.80;97304.00;;;;4971224;28;20195;-79
2023/09/30 05:33:20;;;;;;;10.87;4.93;;;20.60;67.00;19.80;97302.00;;;;4977077;28;20269;-79
2023/09/30 05:35:48;;;;;;;11.97;5.43;;;20.60;67.10;19.80;97301.00;;;;4973539;28;20751;-79
2023/09/30 05:38:15;;;;;;;9.00;4.83;;;20.60;67.20;19.70;97296.00;;;;4969057;28;20257;-78
2023/09/30 05:40:44;;;;;;;7.47;4.10;;;20.60;67.40;19.70;97297.00;;;;4968909;28;20231;-78
2023/09/30 05:43:13;;;;;;;6.57;4.10;;;20.60;67.50;19.70;97305.00;;;;4962828;28;20224;-79
2023/09/30 05:45:48;;;;;;;8.77;4.53;;;20.50;67.50;19.70;97311.00;;;;4972549;28;20217;-79
2023/09/30 05:48:16;;;;;;;8.47;4.50;;;20.50;67.50;19.70;97314.00;;;;4979665;28;20225;-79
2023/09/30 05:50:43;;;;;;;9.33;4.83;;;20.50;67.60;19.70;97311.00;;;;4964332;28;20202;-79
2023/09/30 05:53:11;;;;;;;9.87;4.37;;;20.50;67.70;19.60;97311.00;;;;4972081;28;20230;-79
2023/09/30 05:55:42;;;;;;;9.70;4.97;;;20.50;67.80;19.60;97310.00;;;;4966262;28;20703;-79
2023/09/30 05:58:13;;;;;;;8.67;4.63;;;20.40;67.90;19.60;97311.00;;;;4976491;28;20199;-79
2023/09/30 06:00:41;;;;;;;8.83;4.60;;;20.40;68.10;19.60;97300.00;;;;4982638;28;20215;-79
2023/09/30 06:03:10;;;;;;;8.30;4.50;;;20.40;68.10;19.60;97301.00;;;;4983797;28;20233;-79
2023/09/30 06:05:41;;;;;;;8.83;4.77;;;20.40;68.20;19.60;97305.00;;;;4960298;28;20221;-79
2023/09/30 06:08:13;;;;;;;8.43;4.73;;;20.40;68.40;19.60;97302.00;;;;4982751;28;20286;-79
2023/09/30 06:10:43;;;;;;;7.57;4.33;;;20.40;68.50;19.60;97308.00;;;;4969967;28;20282;-79
2023/09/30 06:13:13;;;;;;;11.00;4.40;;;20.30;68.50;19.60;97320.00;;;;4971623;28;20215;-79
2023/09/30 06:15:41;;;;;;;8.13;4.07;;;20.30;68.60;19.60;97338.00;;;;4969532;28;20251;-79
2023/09/30 06:18:13;;;;;;;7.73;4.73;;;20.40;68.70;19.60;97348.00;;;;4942618;28;20611;-79
2023/09/30 06:20:41;;;;;;;11.73;5.00;;;20.40;68.80;19.70;97343.00;;;;4963194;28;20204;-79
2023/09/30 06:23:09;;;;;;;9.37;4.70;;;20.40;68.90;19.70;97349.00;;;;4970278;28;20234;-75
2023/09/30 06:25:37;;;;;;;8.60;4.80;;;20.40;68.90;19.70;97341.00;;;;4988446;28;20239;-75
2023/09/30 06:28:05;;;;;;;10.27;5.03;;;20.40;68.90;19.70;97344.00;;;;4964841;28;20199;-76
2023/09/30 06:30:33;;;;;;;8.30;4.37;;;20.40;68.80;19.70;97349.00;;;;4960386;28;20208;-75
2023/09/30 06:33:04;;;;;;;9.80;4.50;;;20.40;68.90;19.80;97365.00;;;;4967343;28;20221;-76
2023/09/30 06:35:37;;;;;;;8.13;4.53;;;20.50;68.90;19.80;97369.00;;;;4969591;28;20210;-75
2023/09/30 06:38:06;;;;;;;9.47;4.53;;;20.50;69.00;19.80;97371.00;;;;4940040;28;20575;-76
2023/09/30 06:40:33;;;;;;;9.57;4.37;;;20.60;69.00;19.90;97367.00;;;;4977331;28;20206;-76
2023/09/30 06:43:01;;;;;;;10.00;4.70;;;20.60;69.00;19.90;97367.00;;;;4969125;28;20262;-76
2023/09/30 06:45:29;;;;;;;8.27;4.57;;;20.60;69.00;20.00;97370.00;;;;4969812;28;20233;-76
2023/09/30 06:47:58;;;;;;;10.73;4.90;;;20.70;69.00;20.00;97370.00;;;;4971527;28;20219;-75
2023/09/30 06:50:25;;;;;;;9.60;5.00;;;20.70;69.10;20.10;97367.00;;;;5002335;28;20202;-76
2023/09/30 06:52:53;;;;;;;8.17;3.83;;;20.70;69.00;20.10;97372.00;;;;4977826;28;20220;-76
2023/09/30 06:55:20;;;;;;;10.13;4.73;;;20.80;69.10;20.10;97366.00;;;;4960851;28;20554;-76
2023/09/30 06:57:47;;;;;;;8.13;4.40;;;20.80;69.10;20.20;97370.00;;;;4970698;28;20746;-76
2023/09/30 07:00:16;;;;;;;7.37;4.17;;;20.80;69.10;20.20;97376.00;;;;4967959;28;20291;-76
2023/09/30 07:02:44;;;;;;;7.93;4.27;;;20.90;69.00;20.30;97384.00;;;;4989128;28;20211;-76
2023/09/30 07:05:16;;;;;;;6.20;4.00;;;20.90;68.90;20.30;97385.00;;;;4963280;28;20278;-76
2023/09/30 07:07:44;;;;;;;7.10;3.97;;;21.00;69.00;20.30;97395.00;;;;4965314;28;20214;-75
2023/09/30 07:10:14;;;;;;;8.10;3.47;;;21.00;69.00;20.40;97388.00;;;;4969638;28;20196;-76
2023/09/30 07:12:41;;;;;;;6.57;3.40;;;21.00;68.90;20.40;97388.00;;;;4970745;28;20203;-76
2023/09/30 07:15:10;;;;;;;5.83;3.07;;;21.10;68.90;20.40;97381.00;;;;4970304;28;20311;-75
2023/09/30 07:17:39;;;;;;;5.87;2.97;;;21.10;68.80;20.50;97381.00;;;;4970488;28;20219;-76
2023/09/30 07:20:09;;;;;;;5.40;2.90;;;21.10;68.60;20.50;97373.00;;;;4969153;28;20195;-75
2023/09/30 07:22:39;;;;;;;3.37;2.13;;;21.20;68.60;20.60;97386.00;;;;4968851;28;20214;-76
2023/09/30 07:25:07;;;;;;;2.93;2.07;;;21.20;68.20;20.60;97398.00;;;;4967013;28;20206;-78
2023/09/30 07:27:34;;;;;;;3.20;2.07;;;21.20;68.20;20.60;97411.00;;;;4968972;28;20283;-74
2023/09/30 07:30:02;;;;;;;4.40;2.60;;;21.20;68.20;20.70;97423.00;;;;4961193;28;20199;-75
2023/09/30 07:32:29;;;;;;;3.40;2.13;;;21.30;68.50;20.70;97413.00;;;;4967033;28;20287;-76
2023/09/30 07:34:56;;;;;;;4.37;2.07;;;21.30;68.40;20.80;97420.00;;;;4946530;28;20209;-76
2023/09/30 07:37:23;;;;;;;3.93;2.17;;;21.40;68.30;20.80;97419.00;;;;4967521;28;20231;-76
2023/09/30 07:39:52;;;;;;;3.30;2.60;;;21.40;68.30;20.80;97420.00;;;;4953253;28;20577;-76
2023/09/30 07:42:22;;;;;;;2.33;1.50;;;21.40;68.10;20.90;97433.00;;;;4965510;28;20202;-76
2023/09/30 07:44:50;;;;;;;2.83;1.70;;;21.50;67.80;20.90;97440.00;;;;4968927;28;20606;-76
2023/09/30 07:47:17;;;;;;;4.73;2.20;;;21.50;68.20;20.90;97433.00;;;;4968450;28;20207;-76
2023/09/30 07:49:44;;;;;;;2.90;1.60;;;21.50;67.40;20.90;97428.00;;;;4968863;28;20200;-76
2023/09/30 07:52:12;;;;;;;2.10;1.47;;;21.50;67.30;20.90;97432.00;;;;4968717;28;20225;-76
2023/09/30 07:54:39;;;;;;;2.80;1.70;;;21.50;67.30;21.00;97436.00;;;;4970585;28;20223;-76
2023/09/30 07:57:07;;;;;;;1.80;1.30;;;21.60;67.30;21.00;97430.00;;;;4970062;28;20721;-76
2023/09/30 07:59:35;;;;;;;3.33;1.60;;;21.60;67.30;21.00;97429.00;;;;4970379;28;20204;-75
2023/09/30 08:02:04;;;;;;;3.07;1.67;;;21.60;67.20;21.00;97443.00;;;;4970212;28;20204;-76
2023/09/30 08:04:32;;;;;;;2.20;1.43;;;21.60;67.10;21.10;97448.00;;;;4968012;28;20296;-76
2023/09/30 08:07:00;;;;;;;3.27;1.60;;;21.60;66.90;21.10;97434.00;;;;4961192;28;20207;-76
2023/09/30 08:09:27;;;;;;;2.17;1.80;;;21.70;67.10;21.10;97439.00;;;;4970362;28;20230;-76
2023/09/30 08:11:56;;;;;;;2.03;1.33;;;21.70;67.00;21.10;97442.00;;;;4981791;28;20251;-76
2023/09/30 08:14:25;;;;;;;3.63;1.70;;;21.70;66.80;21.20;97429.00;;;;4969230;28;20271;-76
2023/09/30 08:16:52;;;;;;;2.90;1.50;;;21.70;67.00;21.20;97423.00;;;;4980621;28;20223;-76
2023/09/30 08:19:20;;;;;;;2.10;1.60;;;21.70;67.10;21.20;97434.00;;;;4937922;28;20656;-76
2023/09/30 08:21:48;;;;;;;6.87;2.40;;;21.80;67.10;21.20;97439.00;;;;4969323;28;20253;-76
2023/09/30 08:24:17;;;;;;;2.17;1.30;;;21.80;66.90;21.30;97451.00;;;;4969602;28;20230;-76
2023/09/30 08:26:44;;;;;;;2.50;1.80;;;21.80;66.50;21.30;97457.00;;;;4969885;28;20211;-76
2023/09/30 08:29:11;;;;;;;2.20;1.60;;;21.90;66.40;21.30;97447.00;;;;4970068;28;20214;-77
2023/09/30 08:31:40;;;;;;;2.47;1.80;;;21.90;66.20;21.30;97443.00;;;;4969927;28;20206;-77
2023/09/30 08:34:08;;;;;;;2.40;1.60;;;21.90;66.40;21.30;97454.00;;;;4969671;28;20692;-77
2023/09/30 08:36:35;;;;;;;1.77;1.57;;;21.90;66.60;21.30;97456.00;;;;4964142;28;20228;-76
2023/09/30 08:39:02;;;;;;;2.13;1.60;;;21.90;66.70;21.30;97458.00;;;;4973149;28;20202;-76
2023/09/30 08:41:34;;;;;;;1.93;1.47;;;21.90;66.60;21.40;97452.00;;;;4971706;28;20207;-77
2023/09/30 08:44:03;;;;;;;2.33;1.33;;;21.90;66.60;21.40;97449.00;;;;4973235;28;20319;-76
2023/09/30 08:46:34;;;;;;;1.70;1.30;;;22.00;66.50;21.40;97452.00;;;;4955738;28;20203;-76
2023/09/30 08:49:06;;;;;;;1.73;1.23;;;22.00;66.30;21.50;97457.00;;;;4973401;28;20206;-75
2023/09/30 08:51:34;;;;;;;3.07;1.50;;;22.00;66.30;21.50;97468.00;;;;4971230;28;20782;-76
2023/09/30 08:54:03;;;;;;;1.57;1.10;;;22.10;66.30;21.50;97473.00;;;;4979812;28;20220;-76
2023/09/30 08:56:33;;;;;;;1.27;1.07;;;22.10;66.40;21.60;97467.00;;;;4971928;28;20791;-76
2023/09/30 08:59:04;;;;;;;0.77;0.70;;;22.10;66.50;21.60;97465.00;;;;4971263;28;20257;-75
2023/09/30 09:01:32;;;;;;;1.20;0.90;;;22.20;66.70;21.60;97465.00;;;;4972803;28;20203;-76
2023/09/30 09:04:00;;;;;;;2.03;1.03;;;22.20;66.30;21.70;97464.00;;;;4943531;28;20256;-76
2023/09/30 09:06:29;;;;;;;1.20;0.70;;;22.20;66.00;21.70;97462.00;;;;4984032;28;20574;-75
2023/09/30 09:09:14;;;;;;;1.13;0.87;;;22.30;65.90;21.80;97476.00;;;;4991386;28;20211;-75
2023/09/30 09:11:42;;;;;;;1.37;0.97;;;22.30;65.70;21.80;97474.00;;;;4967410;28;20204;-76
2023/09/30 09:14:09;;;;;;;1.20;0.90;;;22.30;65.70;21.80;97466.00;;;;4971670;28;20224;-75
2023/09/30 09:16:37;;;;;;;1.53;1.10;;;22.40;65.40;21.90;97475.00;;;;4973287;28;20242;-75
2023/09/30 09:19:15;;;;;;;0.80;0.70;;;22.40;65.50;21.90;97481.00;;;;4967194;28;20205;-75
2023/09/30 09:21:57;;;;;;;1.10;1.00;;;22.40;65.80;21.90;97464.00;;;;4962842;28;20202;-75
2023/09/30 09:24:30;;;;;;;0.63;0.60;;;22.50;65.10;22.00;97471.00;;;;4962478;28;20243;-75
2023/09/30 09:27:06;;;;;;;1.07;0.70;;;22.50;65.00;22.00;97457.00;;;;4972375;28;20714;-76
2023/09/30 09:29:34;;;;;;;1.67;0.80;;;22.60;65.10;22.10;97459.00;;;;4981876;28;20659;-76
2023/09/30 09:32:15;;;;;;;1.37;0.97;;;22.60;65.20;22.10;97474.00;;;;4969341;28;20670;-76
2023/09/30 09:34:44;;;;;;;0.70;0.70;;;22.60;64.70;22.20;97468.00;;;;4994981;28;20567;-76
2023/09/30 09:37:18;;;;;;;1.17;0.70;;;22.70;64.50;22.20;97462.00;;;;4970917;28;20234;-76
2023/09/30 09:39:56;;;;;;;0.87;0.60;;;22.70;64.50;22.20;97458.00;;;;4976715;28;20297;-75
2023/09/30 09:42:30;;;;;;;1.00;0.90;;;22.70;63.90;22.20;97448.00;;;;4960638;28;20207;-75
2023/09/30 09:45:01;;;;;;;1.07;0.97;;;22.70;64.00;22.20;97440.00;;;;5020971;28;20294;-76
2023/09/30 09:47:33;;;;;;;0.70;0.70;;;22.80;64.40;22.30;97448.00;;;;4961129;28;20208;-76
2023/09/30 09:50:04;;;;;;;1.00;0.87;;;22.80;64.50;22.40;97448.00;;;;4961173;28;20192;-76
2023/09/30 09:52:35;;;;;;;1.17;0.77;;;22.80;64.40;22.40;97454.00;;;;4968964;28;20230;-76
2023/09/30 09:55:05;;;;;;;1.00;0.90;;;22.90;64.10;22.50;97465.00;;;;4968225;28;20202;-76
2023/09/30 09:57:33;;;;;;;0.80;0.80;;;22.90;64.20;22.60;97452.00;;;;4982000;28;20224;-77
2023/09/30 10:00:05;;;;;;;1.17;0.77;;;23.00;64.50;22.60;97456.00;;;;4955236;28;20291;-75
2023/09/30 10:02:35;;;;;;;0.70;0.70;;;23.10;64.40;22.70;97450.00;;;;4971878;28;20196;-76
2023/09/30 10:05:05;;;;;;;0.53;0.47;;;23.20;63.90;22.70;97445.00;;;;4971530;28;20728;-76
2023/09/30 10:07:38;;;;;;;0.83;0.70;;;23.20;63.60;22.80;97450.00;;;;4975493;28;20287;-76
2023/09/30 10:10:13;;;;;;;0.63;0.60;;;23.30;63.80;22.90;97437.00;;;;4976366;28;20251;-76
2023/09/30 10:12:40;;;;;;;0.90;0.70;;;23.40;63.80;23.00;97439.00;;;;4970602;28;20262;-76
2023/09/30 10:15:41;;;;;;;0.83;0.70;;;23.40;63.60;23.00;97441.00;;;;4969584;28;20197;-76
2023/09/30 10:18:10;;;;;;;1.40;1.00;;;23.50;62.80;23.10;97435.00;;;;4910091;28;20613;-76
2023/09/30 10:20:41;;;;;;;1.47;1.10;;;23.50;62.80;23.10;97434.00;;;;4928368;28;20212;-75
2023/09/30 10:23:37;;;;;;;2.97;1.13;;;23.60;62.80;23.20;97435.00;;;;4950379;28;20242;-76
2023/09/30 10:26:18;;;;;;;1.23;1.00;;;23.70;62.60;23.30;97421.00;;;;4964197;28;20207;-77
2023/09/30 10:28:49;;;;;;;1.50;1.00;;;23.70;62.40;23.40;97426.00;;;;4952213;28;20293;-76
2023/09/30 10:31:19;;;;;;;2.20;0.80;;;23.80;62.30;23.40;97420.00;;;;4971298;28;20629;-76
2023/09/30 10:34:22;;;;;;;1.63;0.90;;;23.90;62.70;23.50;97427.00;;;;4964780;28;20228;-76
2023/09/30 10:36:52;;;;;;;1.53;0.70;;;23.90;61.60;23.60;97430.00;;;;4929877;28;20238;-76
2023/09/30 10:39:55;;;;;;;0.80;0.73;;;24.00;62.30;23.60;97429.00;;;;4924538;28;20750;-76
2023/09/30 10:42:49;;;;;;;1.23;0.97;;;24.10;62.00;23.70;97432.00;;;;4941763;28;20297;-76
2023/09/30 10:45:49;;;;;;;1.63;1.17;;;24.10;61.20;23.70;97423.00;;;;4983971;28;20302;-77
2023/09/30 10:48:39;;;;;;;1.30;1.00;;;24.20;61.10;23.70;97421.00;;;;4950694;28;20584;-75
2023/09/30 10:51:19;;;;;;;1.70;1.07;;;24.20;60.90;23.70;97423.00;;;;4969651;28;20203;-76
2023/09/30 10:53:50;;;;;;;1.37;1.20;;;24.20;60.10;23.70;97431.00;;;;4969661;28;20222;-76
2023/09/30 10:56:20;;;;;;;1.00;0.90;;;24.20;60.20;23.70;97427.00;;;;4966863;28;20749;-76
2023/09/30 10:58:49;;;;;;;1.77;1.20;;;24.20;59.80;23.70;97416.00;;;;4968246;28;20232;-76
2023/09/30 11:01:19;;;;;;;1.20;1.07;;;24.20;59.60;23.70;97413.00;;;;4967475;28;20209;-76
2023/09/30 11:03:49;;;;;;;2.37;1.20;;;24.20;59.20;23.70;97419.00;;;;4971472;28;20737;-76